sensor_id;sensor_type;location;lat;lon;timestamp;temperature;humidity
29173;DHT22;16223;47.966;-1.616;2022-07-22T00:00:15;16.4;87
29173;DHT22;16223;47.966;-1.616;2022-07-22T00:01:15;16.4;87
29173;DHT22;16223;47.966;-1.616;2022-07-22T00:02:15;16.4;87
29173;DHT22;16223;47.966;-1.616;2022-07-22T00:03:15;16.4;87
29173;DHT22;16223;47.966;-1.616;2022-07-22T00:04:15;16.4;87
29173;DHT22;16223;47.966;-1.616;2022-07-22T00:05:15;16.4;87
29173;DHT22;16223;47.966;-1.616;2022-07-22T00:06:15;16.4;87
29173;DHT22;16223;47.966;-1.616;2022-07-22T00:07:18;16.4;87
29173;DHT22;16223;47.966;-1.616;2022-07-22T00:08:15;16.4;87
29173;DHT22;16223;47.966;-1.616;2022-07-22T00:09:15;16.4;87
29173;DHT22;16223;47.966;-1.616;2022-07-22T00:10:15;16.4;87
29173;DHT22;16223;47.966;-1.616;2022-07-22T00:11:15;16.4;87
29173;DHT22;16223;47.966;-1.616;2022-07-22T00:12:15;16.4;87
29173;DHT22;16223;47.966;-1.616;2022-07-22T00:13:15;16.4;87
29173;DHT22;16223;47.966;-1.616;2022-07-22T00:14:15;16.4;87
29173;DHT22;16223;47.966;-1.616;2022-07-22T00:15:15;16.4;87
29173;DHT22;16223;47.966;-1.616;2022-07-22T00:16:15;16.4;87
29173;DHT22;16223;47.966;-1.616;2022-07-22T00:17:15;16.4;87
29173;DHT22;16223;47.966;-1.616;2022-07-22T00:18:15;16.4;87
29173;DHT22;16223;47.966;-1.616;2022-07-22T00:19:15;16.4;87
29173;DHT22;16223;47.966;-1.616;2022-07-22T00:20:15;16.4;87
29173;DHT22;16223;47.966;-1.616;2022-07-22T00:21:14;16.4;87
29173;DHT22;16223;47.966;-1.616;2022-07-22T00:22:15;16.4;87
29173;DHT22;16223;47.966;-1.616;2022-07-22T00:23:15;16.4;87
29173;DHT22;16223;47.966;-1.616;2022-07-22T00:24:15;16.4;87
29173;DHT22;16223;47.966;-1.616;2022-07-22T00:25:15;16.4;87
29173;DHT22;16223;47.966;-1.616;2022-07-22T00:26:15;16.4;87
29173;DHT22;16223;47.966;-1.616;2022-07-22T00:27:15;16.4;87
29173;DHT22;16223;47.966;-1.616;2022-07-22T00:28:15;16.4;87
29173;DHT22;16223;47.966;-1.616;2022-07-22T00:29:14;16.4;87
29173;DHT22;16223;47.966;-1.616;2022-07-22T00:30:15;16.4;87
29173;DHT22;16223;47.966;-1.616;2022-07-22T00:31:15;16.4;87
29173;DHT22;16223;47.966;-1.616;2022-07-22T00:32:15;16.4;87
29173;DHT22;16223;47.966;-1.616;2022-07-22T00:33:16;16.4;87
29173;DHT22;16223;47.966;-1.616;2022-07-22T00:34:15;16.4;87
29173;DHT22;16223;47.966;-1.616;2022-07-22T00:35:16;16.4;87
29173;DHT22;16223;47.966;-1.616;2022-07-22T00:36:14;16.1;91
29173;DHT22;16223;47.966;-1.616;2022-07-22T00:37:15;16.1;91
29173;DHT22;16223;47.966;-1.616;2022-07-22T00:38:15;16.1;91
29173;DHT22;16223;47.966;-1.616;2022-07-22T00:39:15;16.1;91
29173;DHT22;16223;47.966;-1.616;2022-07-22T00:40:15;16.1;91
29173;DHT22;16223;47.966;-1.616;2022-07-22T00:41:15;16.1;91
29173;DHT22;16223;47.966;-1.616;2022-07-22T00:42:15;16.1;91
29173;DHT22;16223;47.966;-1.616;2022-07-22T00:43:15;16.1;91
29173;DHT22;16223;47.966;-1.616;2022-07-22T00:44:15;16.1;91
29173;DHT22;16223;47.966;-1.616;2022-07-22T00:45:15;16.1;91
29173;DHT22;16223;47.966;-1.616;2022-07-22T00:46:15;16.1;91
29173;DHT22;16223;47.966;-1.616;2022-07-22T00:47:15;16.1;91
29173;DHT22;16223;47.966;-1.616;2022-07-22T00:48:15;16.1;91
29173;DHT22;16223;47.966;-1.616;2022-07-22T00:49:15;16.1;91
29173;DHT22;16223;47.966;-1.616;2022-07-22T00:50:17;16.1;91
29173;DHT22;16223;47.966;-1.616;2022-07-22T00:51:16;16.1;91
29173;DHT22;16223;47.966;-1.616;2022-07-22T00:52:16;16.1;91
29173;DHT22;16223;47.966;-1.616;2022-07-22T00:53:15;16.1;91
29173;DHT22;16223;47.966;-1.616;2022-07-22T00:54:16;16.1;91
29173;DHT22;16223;47.966;-1.616;2022-07-22T00:55:15;16.1;91
29173;DHT22;16223;47.966;-1.616;2022-07-22T00:56:15;16.1;91
29173;DHT22;16223;47.966;-1.616;2022-07-22T00:57:15;16.1;91
29173;DHT22;16223;47.966;-1.616;2022-07-22T00:58:15;16.1;91
29173;DHT22;16223;47.966;-1.616;2022-07-22T00:59:15;16.1;91
29173;DHT22;16223;47.966;-1.616;2022-07-22T01:00:18;16.1;91
29173;DHT22;16223;47.966;-1.616;2022-07-22T01:01:15;16.1;91
29173;DHT22;16223;47.966;-1.616;2022-07-22T01:02:15;16.1;91
29173;DHT22;16223;47.966;-1.616;2022-07-22T01:03:15;16.1;91
29173;DHT22;16223;47.966;-1.616;2022-07-22T01:04:15;16.1;91
29173;DHT22;16223;47.966;-1.616;2022-07-22T01:05:15;16.1;91
29173;DHT22;16223;47.966;-1.616;2022-07-22T01:06:15;16.1;91
29173;DHT22;16223;47.966;-1.616;2022-07-22T01:07:15;16.1;91
29173;DHT22;16223;47.966;-1.616;2022-07-22T01:08:15;16.1;91
29173;DHT22;16223;47.966;-1.616;2022-07-22T01:09:16;16.1;91
29173;DHT22;16223;47.966;-1.616;2022-07-22T01:10:16;16.1;91
29173;DHT22;16223;47.966;-1.616;2022-07-22T01:11:17;16.1;91
29173;DHT22;16223;47.966;-1.616;2022-07-22T01:12:15;16.1;91
29173;DHT22;16223;47.966;-1.616;2022-07-22T01:13:15;16.1;91
29173;DHT22;16223;47.966;-1.616;2022-07-22T01:14:15;16.1;91
29173;DHT22;16223;47.966;-1.616;2022-07-22T01:15:15;16.1;91
29173;DHT22;16223;47.966;-1.616;2022-07-22T01:16:16;16.1;91
29173;DHT22;16223;47.966;-1.616;2022-07-22T01:17:15;16.1;91
29173;DHT22;16223;47.966;-1.616;2022-07-22T01:18:15;16.1;91
29173;DHT22;16223;47.966;-1.616;2022-07-22T01:19:15;16.1;91
29173;DHT22;16223;47.966;-1.616;2022-07-22T01:20:15;16.1;91
29173;DHT22;16223;47.966;-1.616;2022-07-22T01:21:16;16.1;91
29173;DHT22;16223;47.966;-1.616;2022-07-22T01:22:15;16.1;91
29173;DHT22;16223;47.966;-1.616;2022-07-22T01:23:15;16.1;91
29173;DHT22;16223;47.966;-1.616;2022-07-22T01:24:15;16.1;91
29173;DHT22;16223;47.966;-1.616;2022-07-22T01:25:15;16.1;91
29173;DHT22;16223;47.966;-1.616;2022-07-22T01:26:15;16.1;91
29173;DHT22;16223;47.966;-1.616;2022-07-22T01:27:14;16.1;91
29173;DHT22;16223;47.966;-1.616;2022-07-22T01:28:15;16.1;91
29173;DHT22;16223;47.966;-1.616;2022-07-22T01:29:15;16.1;91
29173;DHT22;16223;47.966;-1.616;2022-07-22T01:30:15;16.1;91
29173;DHT22;16223;47.966;-1.616;2022-07-22T01:31:15;16.1;91
29173;DHT22;16223;47.966;-1.616;2022-07-22T01:32:15;16.1;91
29173;DHT22;16223;47.966;-1.616;2022-07-22T01:33:15;16.1;91
29173;DHT22;16223;47.966;-1.616;2022-07-22T01:34:15;16.1;91
29173;DHT22;16223;47.966;-1.616;2022-07-22T01:35:15;16.1;91
29173;DHT22;16223;47.966;-1.616;2022-07-22T01:36:15;16.1;91
29173;DHT22;16223;47.966;-1.616;2022-07-22T01:37:15;16.1;91
29173;DHT22;16223;47.966;-1.616;2022-07-22T01:38:15;16.1;91
29173;DHT22;16223;47.966;-1.616;2022-07-22T01:39:15;16.1;91
29173;DHT22;16223;47.966;-1.616;2022-07-22T01:40:15;16.1;91
29173;DHT22;16223;47.966;-1.616;2022-07-22T01:41:15;15.9;93
29173;DHT22;16223;47.966;-1.616;2022-07-22T01:42:15;15.9;93
29173;DHT22;16223;47.966;-1.616;2022-07-22T01:43:15;15.9;93
29173;DHT22;16223;47.966;-1.616;2022-07-22T01:44:15;15.9;93
29173;DHT22;16223;47.966;-1.616;2022-07-22T01:45:15;15.9;93
29173;DHT22;16223;47.966;-1.616;2022-07-22T01:46:15;15.9;93
29173;DHT22;16223;47.966;-1.616;2022-07-22T01:47:15;15.9;93
29173;DHT22;16223;47.966;-1.616;2022-07-22T01:48:15;15.9;93
29173;DHT22;16223;47.966;-1.616;2022-07-22T01:49:15;15.9;93
29173;DHT22;16223;47.966;-1.616;2022-07-22T01:50:15;15.9;93
29173;DHT22;16223;47.966;-1.616;2022-07-22T01:51:15;15.9;93
29173;DHT22;16223;47.966;-1.616;2022-07-22T01:52:15;15.9;93
29173;DHT22;16223;47.966;-1.616;2022-07-22T01:53:15;15.9;93
29173;DHT22;16223;47.966;-1.616;2022-07-22T01:54:15;15.9;93
29173;DHT22;16223;47.966;-1.616;2022-07-22T01:55:15;15.9;93
29173;DHT22;16223;47.966;-1.616;2022-07-22T01:56:16;15.9;93
29173;DHT22;16223;47.966;-1.616;2022-07-22T01:57:15;15.9;93
29173;DHT22;16223;47.966;-1.616;2022-07-22T01:58:15;15.9;93
29173;DHT22;16223;47.966;-1.616;2022-07-22T01:59:16;15.9;93
29173;DHT22;16223;47.966;-1.616;2022-07-22T02:00:16;15.9;93
29173;DHT22;16223;47.966;-1.616;2022-07-22T02:01:15;15.9;93
29173;DHT22;16223;47.966;-1.616;2022-07-22T02:02:15;15.9;93
29173;DHT22;16223;47.966;-1.616;2022-07-22T02:03:15;15.9;93
29173;DHT22;16223;47.966;-1.616;2022-07-22T02:04:15;15.9;93
29173;DHT22;16223;47.966;-1.616;2022-07-22T02:05:15;15.9;93
29173;DHT22;16223;47.966;-1.616;2022-07-22T02:06:15;15.9;93
29173;DHT22;16223;47.966;-1.616;2022-07-22T02:07:15;15.9;93
29173;DHT22;16223;47.966;-1.616;2022-07-22T02:08:15;15.9;93
29173;DHT22;16223;47.966;-1.616;2022-07-22T02:09:15;15.9;93
29173;DHT22;16223;47.966;-1.616;2022-07-22T02:10:16;15.9;93
29173;DHT22;16223;47.966;-1.616;2022-07-22T02:11:16;15.9;93
29173;DHT22;16223;47.966;-1.616;2022-07-22T02:12:15;15.9;93
29173;DHT22;16223;47.966;-1.616;2022-07-22T02:13:15;15.9;93
29173;DHT22;16223;47.966;-1.616;2022-07-22T02:14:15;15.9;93
29173;DHT22;16223;47.966;-1.616;2022-07-22T02:15:15;15.9;93
29173;DHT22;16223;47.966;-1.616;2022-07-22T02:16:15;15.9;93
29173;DHT22;16223;47.966;-1.616;2022-07-22T02:17:15;15.9;93
29173;DHT22;16223;47.966;-1.616;2022-07-22T02:18:17;15.9;93
29173;DHT22;16223;47.966;-1.616;2022-07-22T02:19:16;15.9;93
29173;DHT22;16223;47.966;-1.616;2022-07-22T02:20:16;15.9;93
29173;DHT22;16223;47.966;-1.616;2022-07-22T02:21:15;15.9;93
29173;DHT22;16223;47.966;-1.616;2022-07-22T02:22:15;15.9;93
29173;DHT22;16223;47.966;-1.616;2022-07-22T02:23:16;15.9;93
29173;DHT22;16223;47.966;-1.616;2022-07-22T02:24:15;15.9;93
29173;DHT22;16223;47.966;-1.616;2022-07-22T02:25:15;15.9;93
29173;DHT22;16223;47.966;-1.616;2022-07-22T02:26:15;15.9;93
29173;DHT22;16223;47.966;-1.616;2022-07-22T02:27:15;15.9;93
29173;DHT22;16223;47.966;-1.616;2022-07-22T02:28:16;15.9;93
29173;DHT22;16223;47.966;-1.616;2022-07-22T02:29:15;15.9;93
29173;DHT22;16223;47.966;-1.616;2022-07-22T02:30:15;15.9;93
29173;DHT22;16223;47.966;-1.616;2022-07-22T02:31:15;15.9;93
29173;DHT22;16223;47.966;-1.616;2022-07-22T02:32:15;15.9;93
29173;DHT22;16223;47.966;-1.616;2022-07-22T02:33:15;15.9;93
29173;DHT22;16223;47.966;-1.616;2022-07-22T02:34:15;15.7;95
29173;DHT22;16223;47.966;-1.616;2022-07-22T02:35:16;15.7;95
29173;DHT22;16223;47.966;-1.616;2022-07-22T02:36:15;15.7;95
29173;DHT22;16223;47.966;-1.616;2022-07-22T02:37:15;15.7;95
29173;DHT22;16223;47.966;-1.616;2022-07-22T02:38:16;15.7;95
29173;DHT22;16223;47.966;-1.616;2022-07-22T02:39:15;15.7;95
29173;DHT22;16223;47.966;-1.616;2022-07-22T02:40:15;15.7;95
29173;DHT22;16223;47.966;-1.616;2022-07-22T02:41:14;15.7;95
29173;DHT22;16223;47.966;-1.616;2022-07-22T02:42:15;15.7;95
29173;DHT22;16223;47.966;-1.616;2022-07-22T02:43:15;15.7;95
29173;DHT22;16223;47.966;-1.616;2022-07-22T02:44:15;15.7;95
29173;DHT22;16223;47.966;-1.616;2022-07-22T02:45:15;15.7;95
29173;DHT22;16223;47.966;-1.616;2022-07-22T02:46:15;15.7;95
29173;DHT22;16223;47.966;-1.616;2022-07-22T02:47:15;15.7;95
29173;DHT22;16223;47.966;-1.616;2022-07-22T02:48:15;15.7;95
29173;DHT22;16223;47.966;-1.616;2022-07-22T02:49:15;15.7;95
29173;DHT22;16223;47.966;-1.616;2022-07-22T02:50:15;15.7;95
29173;DHT22;16223;47.966;-1.616;2022-07-22T02:51:15;15.7;95
29173;DHT22;16223;47.966;-1.616;2022-07-22T02:52:25;15.7;95
29173;DHT22;16223;47.966;-1.616;2022-07-22T02:53:15;15.7;95
29173;DHT22;16223;47.966;-1.616;2022-07-22T02:54:15;15.6;95
29173;DHT22;16223;47.966;-1.616;2022-07-22T02:55:16;15.6;95
29173;DHT22;16223;47.966;-1.616;2022-07-22T02:56:16;15.6;95
29173;DHT22;16223;47.966;-1.616;2022-07-22T02:57:15;15.6;95
29173;DHT22;16223;47.966;-1.616;2022-07-22T02:58:15;15.6;95
29173;DHT22;16223;47.966;-1.616;2022-07-22T02:59:15;15.6;95
29173;DHT22;16223;47.966;-1.616;2022-07-22T03:00:16;15.6;95
29173;DHT22;16223;47.966;-1.616;2022-07-22T03:01:15;15.6;95
29173;DHT22;16223;47.966;-1.616;2022-07-22T03:02:15;15.6;95
29173;DHT22;16223;47.966;-1.616;2022-07-22T03:03:15;15.6;95
29173;DHT22;16223;47.966;-1.616;2022-07-22T03:04:15;15.6;95
29173;DHT22;16223;47.966;-1.616;2022-07-22T03:05:14;15.6;95
29173;DHT22;16223;47.966;-1.616;2022-07-22T03:06:15;15.6;95
29173;DHT22;16223;47.966;-1.616;2022-07-22T03:07:14;15.6;95
29173;DHT22;16223;47.966;-1.616;2022-07-22T03:08:15;15.6;95
29173;DHT22;16223;47.966;-1.616;2022-07-22T03:09:15;15.6;95
29173;DHT22;16223;47.966;-1.616;2022-07-22T03:10:15;15.6;95
29173;DHT22;16223;47.966;-1.616;2022-07-22T03:11:15;15.6;95
29173;DHT22;16223;47.966;-1.616;2022-07-22T03:12:14;15.6;95
29173;DHT22;16223;47.966;-1.616;2022-07-22T03:13:15;15.6;95
29173;DHT22;16223;47.966;-1.616;2022-07-22T03:14:15;15.6;95
29173;DHT22;16223;47.966;-1.616;2022-07-22T03:15:15;15.6;95
29173;DHT22;16223;47.966;-1.616;2022-07-22T03:16:15;15.6;95
29173;DHT22;16223;47.966;-1.616;2022-07-22T03:17:15;15.6;95
29173;DHT22;16223;47.966;-1.616;2022-07-22T03:18:14;15.6;95
29173;DHT22;16223;47.966;-1.616;2022-07-22T03:19:15;15.6;95
29173;DHT22;16223;47.966;-1.616;2022-07-22T03:20:15;15.6;95
29173;DHT22;16223;47.966;-1.616;2022-07-22T03:21:15;15.6;95
29173;DHT22;16223;47.966;-1.616;2022-07-22T03:22:15;15.6;95
29173;DHT22;16223;47.966;-1.616;2022-07-22T03:23:15;15.6;95
29173;DHT22;16223;47.966;-1.616;2022-07-22T03:24:15;15.6;95
29173;DHT22;16223;47.966;-1.616;2022-07-22T03:25:15;15.6;95
29173;DHT22;16223;47.966;-1.616;2022-07-22T03:26:15;15.6;95
29173;DHT22;16223;47.966;-1.616;2022-07-22T03:27:15;15.6;96
29173;DHT22;16223;47.966;-1.616;2022-07-22T03:28:15;15.6;96
29173;DHT22;16223;47.966;-1.616;2022-07-22T03:29:15;15.6;96
29173;DHT22;16223;47.966;-1.616;2022-07-22T03:30:15;15.6;96
29173;DHT22;16223;47.966;-1.616;2022-07-22T03:31:15;15.6;96
29173;DHT22;16223;47.966;-1.616;2022-07-22T03:32:15;15.6;96
29173;DHT22;16223;47.966;-1.616;2022-07-22T03:33:14;15.6;96
29173;DHT22;16223;47.966;-1.616;2022-07-22T03:34:14;15.6;96
29173;DHT22;16223;47.966;-1.616;2022-07-22T03:35:15;15.6;96
29173;DHT22;16223;47.966;-1.616;2022-07-22T03:36:15;15.6;96
29173;DHT22;16223;47.966;-1.616;2022-07-22T03:37:15;15.6;96
29173;DHT22;16223;47.966;-1.616;2022-07-22T03:38:15;15.6;96
29173;DHT22;16223;47.966;-1.616;2022-07-22T03:39:14;15.6;96
29173;DHT22;16223;47.966;-1.616;2022-07-22T03:40:15;15.6;96
29173;DHT22;16223;47.966;-1.616;2022-07-22T03:41:15;15.6;96
29173;DHT22;16223;47.966;-1.616;2022-07-22T03:42:15;15.6;96
29173;DHT22;16223;47.966;-1.616;2022-07-22T03:43:15;15.6;96
29173;DHT22;16223;47.966;-1.616;2022-07-22T03:44:15;15.6;96
29173;DHT22;16223;47.966;-1.616;2022-07-22T03:45:15;15.6;96
29173;DHT22;16223;47.966;-1.616;2022-07-22T03:46:15;15.6;96
29173;DHT22;16223;47.966;-1.616;2022-07-22T03:47:17;15.6;96
29173;DHT22;16223;47.966;-1.616;2022-07-22T03:48:15;15.6;96
29173;DHT22;16223;47.966;-1.616;2022-07-22T03:49:15;15.6;96
29173;DHT22;16223;47.966;-1.616;2022-07-22T03:50:15;15.6;96
29173;DHT22;16223;47.966;-1.616;2022-07-22T03:51:15;15.6;96
29173;DHT22;16223;47.966;-1.616;2022-07-22T03:52:15;15.6;96
29173;DHT22;16223;47.966;-1.616;2022-07-22T03:53:15;15.6;96
29173;DHT22;16223;47.966;-1.616;2022-07-22T03:54:15;15.6;96
29173;DHT22;16223;47.966;-1.616;2022-07-22T03:55:15;15.6;96
29173;DHT22;16223;47.966;-1.616;2022-07-22T03:56:15;15.6;96
29173;DHT22;16223;47.966;-1.616;2022-07-22T03:57:15;15.6;96
29173;DHT22;16223;47.966;-1.616;2022-07-22T03:58:15;15.6;96
29173;DHT22;16223;47.966;-1.616;2022-07-22T03:59:14;15.6;96
29173;DHT22;16223;47.966;-1.616;2022-07-22T04:00:16;15.6;96
29173;DHT22;16223;47.966;-1.616;2022-07-22T04:01:15;15.6;96
29173;DHT22;16223;47.966;-1.616;2022-07-22T04:02:15;15.6;96
29173;DHT22;16223;47.966;-1.616;2022-07-22T04:03:15;15.6;96
29173;DHT22;16223;47.966;-1.616;2022-07-22T04:04:15;15.6;96
29173;DHT22;16223;47.966;-1.616;2022-07-22T04:05:15;15.6;96
29173;DHT22;16223;47.966;-1.616;2022-07-22T04:06:15;15.6;96
29173;DHT22;16223;47.966;-1.616;2022-07-22T04:07:15;15.6;96
29173;DHT22;16223;47.966;-1.616;2022-07-22T04:08:16;15.6;96
29173;DHT22;16223;47.966;-1.616;2022-07-22T04:09:15;15.6;96
29173;DHT22;16223;47.966;-1.616;2022-07-22T04:10:15;15.6;96
29173;DHT22;16223;47.966;-1.616;2022-07-22T04:11:15;15.6;96
29173;DHT22;16223;47.966;-1.616;2022-07-22T04:12:14;15.6;96
29173;DHT22;16223;47.966;-1.616;2022-07-22T04:13:15;15.6;96
29173;DHT22;16223;47.966;-1.616;2022-07-22T04:14:15;15.6;96
29173;DHT22;16223;47.966;-1.616;2022-07-22T04:15:25;15.6;96
29173;DHT22;16223;47.966;-1.616;2022-07-22T04:16:18;15.6;96
29173;DHT22;16223;47.966;-1.616;2022-07-22T04:17:15;15.6;96
29173;DHT22;16223;47.966;-1.616;2022-07-22T04:18:15;15.7;97
29173;DHT22;16223;47.966;-1.616;2022-07-22T04:19:15;15.7;97
29173;DHT22;16223;47.966;-1.616;2022-07-22T04:20:15;15.7;97
29173;DHT22;16223;47.966;-1.616;2022-07-22T04:21:15;15.7;97
29173;DHT22;16223;47.966;-1.616;2022-07-22T04:22:15;15.7;97
29173;DHT22;16223;47.966;-1.616;2022-07-22T04:23:15;15.7;97
29173;DHT22;16223;47.966;-1.616;2022-07-22T04:24:15;15.7;97
29173;DHT22;16223;47.966;-1.616;2022-07-22T04:25:25;15.7;97
29173;DHT22;16223;47.966;-1.616;2022-07-22T04:26:15;15.7;97
29173;DHT22;16223;47.966;-1.616;2022-07-22T04:27:15;15.7;97
29173;DHT22;16223;47.966;-1.616;2022-07-22T04:28:15;15.7;97
29173;DHT22;16223;47.966;-1.616;2022-07-22T04:29:15;15.7;97
29173;DHT22;16223;47.966;-1.616;2022-07-22T04:30:15;15.7;97
29173;DHT22;16223;47.966;-1.616;2022-07-22T04:31:15;15.7;97
29173;DHT22;16223;47.966;-1.616;2022-07-22T04:32:15;15.7;97
29173;DHT22;16223;47.966;-1.616;2022-07-22T04:33:15;15.7;97
29173;DHT22;16223;47.966;-1.616;2022-07-22T04:34:15;15.7;97
29173;DHT22;16223;47.966;-1.616;2022-07-22T04:35:15;15.7;97
29173;DHT22;16223;47.966;-1.616;2022-07-22T04:36:15;15.7;97
29173;DHT22;16223;47.966;-1.616;2022-07-22T04:37:14;15.7;97
29173;DHT22;16223;47.966;-1.616;2022-07-22T04:38:15;15.7;97
29173;DHT22;16223;47.966;-1.616;2022-07-22T04:39:15;15.7;97
29173;DHT22;16223;47.966;-1.616;2022-07-22T04:40:15;15.7;97
29173;DHT22;16223;47.966;-1.616;2022-07-22T04:41:15;15.7;97
29173;DHT22;16223;47.966;-1.616;2022-07-22T04:42:15;15.7;97
29173;DHT22;16223;47.966;-1.616;2022-07-22T04:43:15;15.7;97
29173;DHT22;16223;47.966;-1.616;2022-07-22T04:44:15;15.7;97
29173;DHT22;16223;47.966;-1.616;2022-07-22T04:45:15;15.7;97
29173;DHT22;16223;47.966;-1.616;2022-07-22T04:46:15;15.7;97
29173;DHT22;16223;47.966;-1.616;2022-07-22T04:47:15;15.7;97
29173;DHT22;16223;47.966;-1.616;2022-07-22T04:48:15;15.7;97
29173;DHT22;16223;47.966;-1.616;2022-07-22T04:49:15;15.7;97
29173;DHT22;16223;47.966;-1.616;2022-07-22T04:50:15;15.7;97
29173;DHT22;16223;47.966;-1.616;2022-07-22T04:51:15;15.7;97
29173;DHT22;16223;47.966;-1.616;2022-07-22T04:52:16;15.7;97
29173;DHT22;16223;47.966;-1.616;2022-07-22T04:53:15;15.7;97
29173;DHT22;16223;47.966;-1.616;2022-07-22T04:54:15;15.7;97
29173;DHT22;16223;47.966;-1.616;2022-07-22T04:55:16;15.7;97
29173;DHT22;16223;47.966;-1.616;2022-07-22T04:56:16;15.7;97
29173;DHT22;16223;47.966;-1.616;2022-07-22T04:57:16;15.7;97
29173;DHT22;16223;47.966;-1.616;2022-07-22T04:58:16;15.7;97
29173;DHT22;16223;47.966;-1.616;2022-07-22T04:59:15;15.7;97
29173;DHT22;16223;47.966;-1.616;2022-07-22T05:00:16;15.7;97
29173;DHT22;16223;47.966;-1.616;2022-07-22T05:01:15;15.7;97
29173;DHT22;16223;47.966;-1.616;2022-07-22T05:02:15;15.7;97
29173;DHT22;16223;47.966;-1.616;2022-07-22T05:03:16;15.7;97
29173;DHT22;16223;47.966;-1.616;2022-07-22T05:04:15;15.7;97
29173;DHT22;16223;47.966;-1.616;2022-07-22T05:05:15;15.7;97
29173;DHT22;16223;47.966;-1.616;2022-07-22T05:06:15;15.7;97
29173;DHT22;16223;47.966;-1.616;2022-07-22T05:07:16;15.7;97
29173;DHT22;16223;47.966;-1.616;2022-07-22T05:08:15;15.7;97
29173;DHT22;16223;47.966;-1.616;2022-07-22T05:09:15;15.7;97
29173;DHT22;16223;47.966;-1.616;2022-07-22T05:10:15;15.7;97
29173;DHT22;16223;47.966;-1.616;2022-07-22T05:11:15;15.7;97
29173;DHT22;16223;47.966;-1.616;2022-07-22T05:12:15;15.9;97
29173;DHT22;16223;47.966;-1.616;2022-07-22T05:13:16;15.9;97
29173;DHT22;16223;47.966;-1.616;2022-07-22T05:14:15;15.9;97
29173;DHT22;16223;47.966;-1.616;2022-07-22T05:15:15;15.9;97
29173;DHT22;16223;47.966;-1.616;2022-07-22T05:16:15;15.9;97
29173;DHT22;16223;47.966;-1.616;2022-07-22T05:17:15;15.9;97
29173;DHT22;16223;47.966;-1.616;2022-07-22T05:18:15;15.9;97
29173;DHT22;16223;47.966;-1.616;2022-07-22T05:19:15;16.1;97
29173;DHT22;16223;47.966;-1.616;2022-07-22T05:20:18;16.1;97
29173;DHT22;16223;47.966;-1.616;2022-07-22T05:21:15;16.1;97
29173;DHT22;16223;47.966;-1.616;2022-07-22T05:22:14;16.1;97
29173;DHT22;16223;47.966;-1.616;2022-07-22T05:23:15;16.1;97
29173;DHT22;16223;47.966;-1.616;2022-07-22T05:24:15;16.1;97
29173;DHT22;16223;47.966;-1.616;2022-07-22T05:25:15;16.1;97
29173;DHT22;16223;47.966;-1.616;2022-07-22T05:26:15;16.1;97
29173;DHT22;16223;47.966;-1.616;2022-07-22T05:27:15;16.1;97
29173;DHT22;16223;47.966;-1.616;2022-07-22T05:28:15;16.1;97
29173;DHT22;16223;47.966;-1.616;2022-07-22T05:29:15;16.1;97
29173;DHT22;16223;47.966;-1.616;2022-07-22T05:30:15;16.1;97
29173;DHT22;16223;47.966;-1.616;2022-07-22T05:31:15;16.1;97
29173;DHT22;16223;47.966;-1.616;2022-07-22T05:32:15;16.1;97
29173;DHT22;16223;47.966;-1.616;2022-07-22T05:33:15;16.1;97
29173;DHT22;16223;47.966;-1.616;2022-07-22T05:34:15;16.1;97
29173;DHT22;16223;47.966;-1.616;2022-07-22T05:35:15;16.1;97
29173;DHT22;16223;47.966;-1.616;2022-07-22T05:36:15;16.1;97
29173;DHT22;16223;47.966;-1.616;2022-07-22T05:37:15;16.1;97
29173;DHT22;16223;47.966;-1.616;2022-07-22T05:38:15;16.1;97
29173;DHT22;16223;47.966;-1.616;2022-07-22T05:39:15;16.1;97
29173;DHT22;16223;47.966;-1.616;2022-07-22T05:40:15;16.1;97
29173;DHT22;16223;47.966;-1.616;2022-07-22T05:41:15;16.1;97
29173;DHT22;16223;47.966;-1.616;2022-07-22T05:42:15;16.1;97
29173;DHT22;16223;47.966;-1.616;2022-07-22T05:43:15;16.1;97
29173;DHT22;16223;47.966;-1.616;2022-07-22T05:44:15;16.1;97
29173;DHT22;16223;47.966;-1.616;2022-07-22T05:45:15;16.1;97
29173;DHT22;16223;47.966;-1.616;2022-07-22T05:46:15;16.1;97
29173;DHT22;16223;47.966;-1.616;2022-07-22T05:47:15;16.1;97
29173;DHT22;16223;47.966;-1.616;2022-07-22T05:48:15;16.1;97
29173;DHT22;16223;47.966;-1.616;2022-07-22T05:49:15;16.1;97
29173;DHT22;16223;47.966;-1.616;2022-07-22T05:50:15;16.1;97
29173;DHT22;16223;47.966;-1.616;2022-07-22T05:51:15;16.1;97
29173;DHT22;16223;47.966;-1.616;2022-07-22T05:52:15;16.1;97
29173;DHT22;16223;47.966;-1.616;2022-07-22T05:53:16;16.1;97
29173;DHT22;16223;47.966;-1.616;2022-07-22T05:54:15;16.1;97
29173;DHT22;16223;47.966;-1.616;2022-07-22T05:55:15;16.6;96
29173;DHT22;16223;47.966;-1.616;2022-07-22T05:56:15;16.6;96
29173;DHT22;16223;47.966;-1.616;2022-07-22T05:57:15;16.6;96
29173;DHT22;16223;47.966;-1.616;2022-07-22T05:58:15;16.6;96
29173;DHT22;16223;47.966;-1.616;2022-07-22T05:59:15;16.6;96
29173;DHT22;16223;47.966;-1.616;2022-07-22T06:00:25;16.6;96
29173;DHT22;16223;47.966;-1.616;2022-07-22T06:01:15;16.6;96
29173;DHT22;16223;47.966;-1.616;2022-07-22T06:02:15;16.6;96
29173;DHT22;16223;47.966;-1.616;2022-07-22T06:03:15;16.6;96
29173;DHT22;16223;47.966;-1.616;2022-07-22T06:04:15;16.6;96
29173;DHT22;16223;47.966;-1.616;2022-07-22T06:05:15;16.6;96
29173;DHT22;16223;47.966;-1.616;2022-07-22T06:06:15;16.6;96
29173;DHT22;16223;47.966;-1.616;2022-07-22T06:07:15;16.6;96
29173;DHT22;16223;47.966;-1.616;2022-07-22T06:08:15;16.9;96
29173;DHT22;16223;47.966;-1.616;2022-07-22T06:09:15;16.9;96
29173;DHT22;16223;47.966;-1.616;2022-07-22T06:10:15;16.9;96
29173;DHT22;16223;47.966;-1.616;2022-07-22T06:11:15;16.9;96
29173;DHT22;16223;47.966;-1.616;2022-07-22T06:12:14;16.9;96
29173;DHT22;16223;47.966;-1.616;2022-07-22T06:13:15;16.9;96
29173;DHT22;16223;47.966;-1.616;2022-07-22T06:14:15;16.9;96
29173;DHT22;16223;47.966;-1.616;2022-07-22T06:15:15;16.9;96
29173;DHT22;16223;47.966;-1.616;2022-07-22T06:16:15;16.9;96
29173;DHT22;16223;47.966;-1.616;2022-07-22T06:17:15;16.9;96
29173;DHT22;16223;47.966;-1.616;2022-07-22T06:18:15;16.9;96
29173;DHT22;16223;47.966;-1.616;2022-07-22T06:19:15;16.9;96
29173;DHT22;16223;47.966;-1.616;2022-07-22T06:20:15;16.9;96
29173;DHT22;16223;47.966;-1.616;2022-07-22T06:21:15;16.9;96
29173;DHT22;16223;47.966;-1.616;2022-07-22T06:22:15;17.1;95
29173;DHT22;16223;47.966;-1.616;2022-07-22T06:23:14;17.1;95
29173;DHT22;16223;47.966;-1.616;2022-07-22T06:24:15;17.1;95
29173;DHT22;16223;47.966;-1.616;2022-07-22T06:25:15;17.1;95
29173;DHT22;16223;47.966;-1.616;2022-07-22T06:26:15;17.1;95
29173;DHT22;16223;47.966;-1.616;2022-07-22T06:27:15;17.1;95
29173;DHT22;16223;47.966;-1.616;2022-07-22T06:28:15;17.1;95
29173;DHT22;16223;47.966;-1.616;2022-07-22T06:29:15;17.1;95
29173;DHT22;16223;47.966;-1.616;2022-07-22T06:30:15;17.1;95
29173;DHT22;16223;47.966;-1.616;2022-07-22T06:31:15;17.1;95
29173;DHT22;16223;47.966;-1.616;2022-07-22T06:32:15;17.1;95
29173;DHT22;16223;47.966;-1.616;2022-07-22T06:33:15;17.1;95
29173;DHT22;16223;47.966;-1.616;2022-07-22T06:34:15;17.1;95
29173;DHT22;16223;47.966;-1.616;2022-07-22T06:35:15;17.1;95
29173;DHT22;16223;47.966;-1.616;2022-07-22T06:36:15;17.1;95
29173;DHT22;16223;47.966;-1.616;2022-07-22T06:37:15;17.1;95